createdAt,value
2018-02-08T00:02:05.608Z,9.60
2018-02-08T00:04:33.154Z,8.90
2018-02-08T00:07:00.695Z,8.40
2018-02-08T00:09:28.236Z,9.10
2018-02-08T00:11:56.539Z,8.80
2018-02-08T00:14:24.098Z,8.80
2018-02-08T00:16:51.630Z,8.43
2018-02-08T00:19:19.192Z,7.73
2018-02-08T00:21:47.505Z,8.60
2018-02-08T00:24:15.041Z,8.60
2018-02-08T00:26:43.378Z,7.57
2018-02-08T00:29:10.914Z,8.57
2018-02-08T00:31:38.449Z,9.37
2018-02-08T00:34:05.983Z,8.30
2018-02-08T00:36:34.295Z,8.13
2018-02-08T00:39:01.851Z,8.17
2018-02-08T00:41:29.387Z,8.10
2018-02-08T00:43:57.701Z,8.50
2018-02-08T00:46:26.012Z,8.27
2018-02-08T00:49:03.160Z,8.40
2018-02-08T00:51:30.734Z,8.17
2018-02-08T00:53:58.275Z,9.00
2018-02-08T00:56:26.782Z,8.60
2018-02-08T00:58:54.429Z,7.60
2018-02-08T01:01:21.972Z,7.70
2018-02-08T01:03:49.506Z,8.20
2018-02-08T01:06:17.839Z,8.53
2018-02-08T01:08:45.383Z,8.13
2018-02-08T01:11:12.916Z,8.30
2018-02-08T01:13:41.207Z,7.70
2018-02-08T01:16:08.734Z,7.90
2018-02-08T01:18:36.331Z,9.40
2018-02-08T01:21:03.865Z,8.80
2018-02-08T01:23:32.164Z,8.30
2018-02-08T01:25:59.705Z,8.60
2018-02-08T01:28:28.011Z,8.00
2018-02-08T01:30:55.543Z,7.80
2018-02-08T01:33:23.844Z,8.07
2018-02-08T01:35:51.374Z,8.10
2018-02-08T01:38:19.675Z,7.73
2018-02-08T01:40:47.211Z,8.80
2018-02-08T01:43:15.510Z,8.60
2018-02-08T01:45:43.044Z,7.63
2018-02-08T01:48:11.382Z,8.27
2018-02-08T01:50:38.914Z,8.20
2018-02-08T01:53:06.455Z,8.10
2018-02-08T01:55:34.756Z,8.87
2018-02-08T01:58:02.301Z,8.50
2018-02-08T02:00:29.836Z,7.80
2018-02-08T02:02:58.156Z,8.00
2018-02-08T02:05:25.710Z,8.13
2018-02-08T02:07:53.254Z,8.37
2018-02-08T02:10:21.570Z,7.43
2018-02-08T02:12:49.107Z,8.57
2018-02-08T02:15:16.643Z,7.80
2018-02-08T02:17:44.940Z,7.97
2018-02-08T02:20:12.476Z,7.80
2018-02-08T02:22:40.815Z,8.50
2018-02-08T02:25:08.351Z,7.53
2018-02-08T02:27:35.878Z,8.23
2018-02-08T02:30:04.187Z,8.63
2018-02-08T02:32:31.711Z,8.20
2018-02-08T02:35:00.041Z,8.20
2018-02-08T02:37:27.585Z,7.90
2018-02-08T02:39:55.123Z,8.80
2018-02-08T02:42:22.702Z,7.93
2018-02-08T02:44:50.254Z,8.30
2018-02-08T02:47:17.807Z,8.30
2018-02-08T02:49:45.338Z,8.60
2018-02-08T02:52:12.868Z,7.80
2018-02-08T02:54:40.407Z,9.03
2018-02-08T02:57:08.700Z,7.87
2018-02-08T02:59:36.236Z,8.10
2018-02-08T03:02:03.777Z,7.23
2018-02-08T03:04:31.314Z,8.47
2018-02-08T03:06:59.631Z,9.03
2018-02-08T03:09:27.170Z,9.03
2018-02-08T03:11:55.495Z,7.30
2018-02-08T03:14:23.047Z,7.83
2018-02-08T03:16:50.589Z,8.23
2018-02-08T03:19:18.123Z,8.40
2018-02-08T03:21:46.427Z,7.90
2018-02-08T03:24:13.968Z,9.10
2018-02-08T03:26:42.292Z,7.50
2018-02-08T03:29:09.836Z,7.20
2018-02-08T03:31:37.374Z,8.80
2018-02-08T03:34:04.902Z,7.47
2018-02-08T03:36:32.440Z,7.40
2018-02-08T03:38:59.987Z,8.97
2018-02-08T03:41:27.527Z,7.70
2018-02-08T03:43:55.059Z,8.10
2018-02-08T03:46:23.364Z,9.53
2018-02-08T03:48:50.898Z,7.63
2018-02-08T03:51:19.201Z,8.47
2018-02-08T03:53:46.752Z,8.50
2018-02-08T03:56:14.289Z,7.87
2018-02-08T03:58:42.588Z,8.50
2018-02-08T04:01:10.266Z,8.67
2018-02-08T04:03:37.802Z,7.43
2018-02-08T04:06:05.367Z,7.87
2018-02-08T04:08:32.910Z,8.30
2018-02-08T04:11:01.199Z,7.00
2018-02-08T04:13:28.728Z,8.40
2018-02-08T04:15:56.269Z,8.37
2018-02-08T04:18:23.831Z,7.60
2018-02-08T04:20:51.376Z,8.60
2018-02-08T04:23:18.922Z,8.57
2018-02-08T04:25:46.459Z,7.83
2018-02-08T04:28:13.991Z,7.57
2018-02-08T04:30:42.331Z,8.70
2018-02-08T04:33:09.864Z,8.17
2018-02-08T04:35:37.409Z,8.30
2018-02-08T04:38:05.715Z,8.07
2018-02-08T04:40:45.119Z,8.00
2018-02-08T04:43:25.319Z,8.23
2018-02-08T04:46:04.522Z,7.60
2018-02-08T04:48:32.058Z,8.47
2018-02-08T04:51:00.366Z,8.23
2018-02-08T04:53:27.943Z,7.90
2018-02-08T04:55:55.481Z,9.00
2018-02-08T04:58:23.027Z,7.73
2018-02-08T05:00:51.319Z,8.63
2018-02-08T05:03:18.872Z,8.87
2018-02-08T05:05:46.416Z,7.60
2018-02-08T05:08:14.003Z,8.30
2018-02-08T05:10:41.539Z,8.70
2018-02-08T05:13:09.849Z,8.47
2018-02-08T05:15:37.423Z,7.60
2018-02-08T05:18:04.959Z,7.73
2018-02-08T05:20:32.493Z,7.23
2018-02-08T05:23:00.799Z,8.87
2018-02-08T05:25:28.331Z,8.67
2018-02-08T05:27:56.634Z,8.20
2018-02-08T05:30:24.157Z,8.20
2018-02-08T05:32:51.694Z,9.23
2018-02-08T05:35:19.221Z,8.03
2018-02-08T05:37:46.765Z,8.80
2018-02-08T05:40:14.297Z,8.80
2018-02-08T05:42:41.847Z,7.60
2018-02-08T05:45:09.388Z,9.10
2018-02-08T05:47:36.932Z,8.77
2018-02-08T05:50:04.476Z,8.87
2018-02-08T05:52:32.011Z,8.83
2018-02-08T05:55:00.316Z,7.33
2018-02-08T05:57:27.877Z,8.60
2018-02-08T05:59:55.415Z,7.30
2018-02-08T06:02:22.959Z,8.10
2018-02-08T06:04:51.264Z,7.50
2018-02-08T06:07:18.806Z,7.97
2018-02-08T06:09:46.370Z,8.50
2018-02-08T06:12:20.367Z,8.77
2018-02-08T06:14:48.667Z,9.40
2018-02-08T06:17:16.195Z,8.50
2018-02-08T06:19:43.723Z,8.43
2018-02-08T06:22:11.255Z,9.10
2018-02-08T06:24:38.807Z,9.23
2018-02-08T06:27:06.356Z,9.77
2018-02-08T06:29:34.656Z,9.10
2018-02-08T06:32:02.213Z,8.60
2018-02-08T06:34:29.758Z,9.47
2018-02-08T06:36:57.294Z,9.23
2018-02-08T06:39:25.590Z,8.53
2018-02-08T06:41:53.878Z,9.77
2018-02-08T06:44:21.410Z,9.13
2018-02-08T06:46:51.679Z,7.80
2018-02-08T06:49:19.245Z,8.20
2018-02-08T06:51:46.790Z,8.53
2018-02-08T06:54:14.341Z,8.33
2018-02-08T06:56:41.871Z,8.50
2018-02-08T06:59:09.441Z,9.00
2018-02-08T07:01:37.018Z,8.47
2018-02-08T07:04:04.558Z,9.03
2018-02-08T07:06:32.854Z,9.33
2018-02-08T07:09:00.382Z,8.73
2018-02-08T07:11:27.913Z,8.67
2018-02-08T07:13:55.479Z,8.83
2018-02-08T07:16:23.012Z,9.50
2018-02-08T07:18:50.543Z,8.80
2018-02-08T07:21:18.834Z,9.97
2018-02-08T07:23:46.358Z,8.20
2018-02-08T07:26:13.917Z,8.93
2018-02-08T07:28:41.447Z,9.47
2018-02-08T07:31:09.746Z,8.47
2018-02-08T07:33:37.283Z,9.80
2018-02-08T07:36:05.826Z,9.60
2018-02-08T07:38:33.356Z,9.40
2018-02-08T07:41:00.882Z,9.87
2018-02-08T07:43:28.443Z,9.97
2018-02-08T07:45:55.971Z,9.50
2018-02-08T07:48:23.504Z,9.53
2018-02-08T07:50:51.802Z,8.37
2018-02-08T07:53:19.338Z,9.53
2018-02-08T07:55:47.687Z,9.40
2018-02-08T07:58:15.218Z,9.93
2018-02-08T08:00:42.754Z,9.10
2018-02-08T08:03:11.050Z,10.10
2018-02-08T08:05:40.549Z,9.10
2018-02-08T08:08:08.108Z,9.90
2018-02-08T08:10:35.641Z,9.53
2018-02-08T08:13:03.946Z,8.40
2018-02-08T08:15:31.470Z,8.73
2018-02-08T08:17:59.014Z,9.30
2018-02-08T08:20:26.582Z,9.20
2018-02-08T08:22:54.118Z,9.93
2018-02-08T08:25:21.663Z,9.40
2018-02-08T08:27:49.191Z,9.13
2018-02-08T08:30:17.494Z,9.73
2018-02-08T08:32:45.065Z,9.80
2018-02-08T08:35:12.615Z,8.57
2018-02-08T08:37:40.163Z,10.00
2018-02-08T08:40:07.711Z,8.80
2018-02-08T08:42:35.256Z,9.40
2018-02-08T08:45:03.599Z,9.27
2018-02-08T08:47:31.135Z,8.83
2018-02-08T08:49:58.680Z,8.93
2018-02-08T08:52:26.219Z,9.60
2018-02-08T08:54:54.540Z,8.03
2018-02-08T08:57:22.130Z,9.57
2018-02-08T08:59:49.715Z,9.37
2018-02-08T09:02:18.037Z,8.87
2018-02-08T09:04:45.581Z,8.60
2018-02-08T09:07:13.128Z,9.50
2018-02-08T09:09:40.691Z,9.77
2018-02-08T09:12:08.240Z,9.53
2018-02-08T09:14:36.550Z,9.10
2018-02-08T09:17:04.098Z,9.00
2018-02-08T09:19:31.648Z,9.40
2018-02-08T09:24:52.920Z,9.17
2018-02-08T09:27:20.502Z,10.17
2018-02-08T09:29:48.106Z,9.50
2018-02-08T09:32:15.651Z,9.47
2018-02-08T09:34:43.959Z,9.70
2018-02-08T09:37:11.518Z,10.07
2018-02-08T09:39:39.091Z,9.07
2018-02-08T09:42:06.635Z,9.60
2018-02-08T09:44:34.179Z,9.83
2018-02-08T09:47:01.722Z,9.93
2018-02-08T09:49:30.035Z,9.60
2018-02-08T09:51:57.604Z,9.20
2018-02-08T09:54:25.154Z,9.90
2018-02-08T09:56:52.690Z,9.30
2018-02-08T09:59:20.244Z,10.13
2018-02-08T10:01:48.550Z,9.17
2018-02-08T10:04:16.114Z,9.50
2018-02-08T10:06:43.659Z,8.93
2018-02-08T10:09:11.203Z,9.73
2018-02-08T10:11:39.511Z,9.67
2018-02-08T10:14:07.054Z,9.03
2018-02-08T10:16:34.630Z,10.00
2018-02-08T10:19:02.938Z,9.13
2018-02-08T10:21:30.489Z,8.77
2018-02-08T10:24:00.077Z,10.00
2018-02-08T10:26:27.620Z,9.33
2018-02-08T10:28:55.193Z,10.40
2018-02-08T10:31:26.887Z,11.00
2018-02-08T10:33:54.450Z,9.70
2018-02-08T10:36:23.916Z,9.30
2018-02-08T10:38:51.455Z,10.50
2018-02-08T10:41:19.731Z,10.63
2018-02-08T10:43:47.277Z,9.87
2018-02-08T10:46:16.507Z,11.07
2018-02-08T10:48:44.066Z,10.10
2018-02-08T10:51:11.608Z,10.23
2018-02-08T10:53:39.158Z,10.67
2018-02-08T10:56:09.438Z,10.80
2018-02-08T10:58:36.973Z,8.20
2018-02-08T11:01:04.502Z,10.30
2018-02-08T11:03:32.834Z,10.07
2018-02-08T11:06:00.377Z,9.10
2018-02-08T11:08:27.919Z,10.00
2018-02-08T11:10:55.487Z,10.23
2018-02-08T11:13:23.027Z,9.60
2018-02-08T11:15:54.817Z,9.70
2018-02-08T11:18:22.355Z,9.77
2018-02-08T11:20:49.898Z,10.27
2018-02-08T11:23:18.207Z,10.27
2018-02-08T11:25:45.753Z,9.97
2018-02-08T11:28:13.302Z,10.50
2018-02-08T11:30:41.610Z,10.73
2018-02-08T11:33:09.918Z,10.10
2018-02-08T11:35:37.525Z,10.07
2018-02-08T11:38:05.811Z,9.37
2018-02-08T11:40:33.354Z,9.83
2018-02-08T11:43:01.660Z,11.60
2018-02-08T11:45:29.198Z,11.13
2018-02-08T11:47:56.762Z,10.07
2018-02-08T11:50:24.335Z,11.03
2018-02-08T11:52:52.079Z,10.53
2018-02-08T11:55:19.622Z,10.80
2018-02-08T11:57:47.936Z,11.07
2018-02-08T12:00:15.470Z,10.63
2018-02-08T12:02:43.798Z,10.30
2018-02-08T12:05:12.348Z,9.40
2018-02-08T12:07:39.911Z,10.87
2018-02-08T12:10:07.481Z,10.47
2018-02-08T12:12:35.027Z,10.37
2018-02-08T12:15:02.573Z,10.30
2018-02-08T12:17:30.895Z,10.10
2018-02-08T12:20:17.579Z,11.00
2018-02-08T12:22:45.195Z,10.97
2018-02-08T12:25:12.746Z,10.30
2018-02-08T12:27:41.185Z,10.17
2018-02-08T12:30:08.726Z,11.13
2018-02-08T12:32:38.695Z,10.00
2018-02-08T12:35:06.429Z,10.90
2018-02-08T12:37:34.531Z,10.83
2018-02-08T12:40:02.074Z,10.43
2018-02-08T12:42:29.616Z,10.40
2018-02-08T12:44:57.153Z,9.80
2018-02-08T12:47:25.488Z,11.03
2018-02-08T12:49:53.028Z,10.13
2018-02-08T12:52:20.568Z,10.30
2018-02-08T12:54:48.103Z,9.57
2018-02-08T12:57:16.408Z,10.80
2018-02-08T12:59:43.971Z,9.53
2018-02-08T13:02:11.846Z,9.80
2018-02-08T13:04:39.386Z,9.77
2018-02-08T13:07:06.931Z,10.90
2018-02-08T13:09:35.251Z,11.00
2018-02-08T13:12:02.819Z,9.13
2018-02-08T13:14:30.356Z,9.83
2018-02-08T13:16:57.888Z,9.90
2018-02-08T13:19:26.182Z,9.77
2018-02-08T13:21:53.722Z,10.43
2018-02-08T13:24:22.109Z,10.47
2018-02-08T13:26:49.623Z,10.10
2018-02-08T13:29:17.163Z,9.87
2018-02-08T13:31:46.319Z,10.50
2018-02-08T13:34:14.626Z,10.77
2018-02-08T13:36:42.812Z,9.47
2018-02-08T13:39:15.893Z,10.47
2018-02-08T13:41:43.448Z,9.97
2018-02-08T13:44:10.986Z,10.00
2018-02-08T13:46:39.297Z,10.00
2018-02-08T13:49:17.703Z,10.10
2018-02-08T13:54:56.230Z,8.83
2018-02-08T13:57:29.359Z,10.37
2018-02-08T13:59:56.903Z,9.37
2018-02-08T14:02:24.438Z,9.10
2018-02-08T14:04:51.998Z,9.77
2018-02-08T14:07:19.546Z,10.57
2018-02-08T14:09:47.852Z,9.27
2018-02-08T14:12:15.395Z,9.87
2018-02-08T14:14:42.927Z,9.77
2018-02-08T14:17:10.488Z,9.20
2018-02-08T14:19:38.019Z,9.47
2018-02-08T14:22:05.551Z,9.70
2018-02-08T14:24:33.094Z,9.70
2018-02-08T14:27:00.622Z,9.97
2018-02-08T14:29:28.198Z,9.27
2018-02-08T14:31:56.498Z,9.60
2018-02-08T14:34:24.035Z,9.80
2018-02-08T14:36:52.357Z,9.47
2018-02-08T14:39:19.894Z,9.53
2018-02-08T14:41:47.451Z,9.67
2018-02-08T14:44:14.992Z,9.30
2018-02-08T14:46:43.290Z,10.03
2018-02-08T14:49:10.817Z,8.33
2018-02-08T14:51:38.346Z,9.83
2018-02-08T14:54:05.906Z,9.70
2018-02-08T14:56:33.468Z,9.30
2018-02-08T14:59:01.008Z,9.40
2018-02-08T15:01:28.542Z,9.80
2018-02-08T15:03:56.076Z,9.83
2018-02-08T15:06:23.642Z,8.87
2018-02-08T15:08:51.939Z,8.60
2018-02-08T15:11:19.469Z,9.37
2018-02-08T15:13:47.006Z,9.03
2018-02-08T15:16:14.540Z,9.37
2018-02-08T15:18:42.112Z,8.67
2018-02-08T15:21:09.642Z,10.20
2018-02-08T15:23:37.174Z,9.30
2018-02-08T15:26:05.476Z,8.83
2018-02-08T15:28:33.005Z,8.40
2018-02-08T15:31:01.335Z,9.80
2018-02-08T15:33:28.870Z,10.03
2018-02-08T15:35:57.163Z,8.97
2018-02-08T15:38:24.694Z,9.90
2018-02-08T15:40:53.025Z,8.37
2018-02-08T15:43:20.586Z,9.70
2018-02-08T15:45:49.056Z,9.60
2018-02-08T15:48:16.603Z,9.73
2018-02-08T15:50:44.131Z,9.37
2018-02-08T15:53:12.426Z,8.97
2018-02-08T15:55:39.989Z,9.10
2018-02-08T15:58:07.515Z,8.83
2018-02-08T16:00:35.036Z,8.90
2018-02-08T16:03:02.586Z,8.73
2018-02-08T16:05:30.127Z,8.67
2018-02-08T16:07:57.654Z,8.70
2018-02-08T16:10:25.964Z,9.80
2018-02-08T16:12:53.503Z,9.97
2018-02-08T16:15:21.812Z,7.90
2018-02-08T16:17:49.338Z,9.23
2018-02-08T16:20:18.344Z,8.70
2018-02-08T16:22:49.364Z,8.73
2018-02-08T16:25:16.951Z,10.00
2018-02-08T16:27:44.518Z,9.03
2018-02-08T16:30:12.114Z,10.27
2018-02-08T16:32:42.694Z,8.83
2018-02-08T16:35:10.235Z,9.27
2018-02-08T16:37:37.924Z,8.10
2018-02-08T16:40:06.238Z,9.57
2018-02-08T16:42:33.807Z,9.10
2018-02-08T16:45:01.347Z,9.53
2018-02-08T16:47:28.905Z,8.83
2018-02-08T16:49:56.438Z,8.70
2018-02-08T16:52:24.741Z,8.90
2018-02-08T16:54:52.304Z,9.77
2018-02-08T16:57:19.839Z,8.60
2018-02-08T16:59:47.380Z,9.67
2018-02-08T17:02:15.679Z,9.83
2018-02-08T17:04:44.175Z,9.50
2018-02-08T17:07:11.713Z,9.60
2018-02-08T17:09:42.672Z,8.90
2018-02-08T17:12:10.203Z,9.43
2018-02-08T17:14:38.523Z,9.37
2018-02-08T17:17:06.868Z,9.13
2018-02-08T17:19:35.314Z,8.83
2018-02-08T17:22:03.398Z,9.20
2018-02-08T17:24:30.967Z,9.57
2018-02-08T17:26:59.286Z,8.23
2018-02-08T17:29:26.834Z,9.00
2018-02-08T17:31:54.376Z,9.97
2018-02-08T17:34:22.675Z,9.30
2018-02-08T17:36:51.151Z,9.10
2018-02-08T17:39:18.742Z,9.10
2018-02-08T17:41:46.686Z,8.13
2018-02-08T17:44:14.233Z,8.60
2018-02-08T17:46:41.774Z,9.20
2018-02-08T17:49:10.089Z,8.43
2018-02-08T17:51:37.653Z,9.60
2018-02-08T17:54:08.978Z,9.30
2018-02-08T17:56:37.304Z,9.00
2018-02-08T17:59:05.671Z,8.90
2018-02-08T18:01:43.316Z,9.40
2018-02-08T18:04:12.622Z,8.63
2018-02-08T18:06:42.898Z,9.03
2018-02-08T18:09:10.457Z,10.50
2018-02-08T18:11:37.999Z,9.10
2018-02-08T18:14:05.550Z,9.30
2018-02-08T18:16:33.724Z,8.93
2018-02-08T18:19:02.278Z,8.73
2018-02-08T18:21:48.652Z,8.93
2018-02-08T18:24:16.182Z,9.60
2018-02-08T18:26:43.737Z,9.30
2018-02-08T18:29:11.324Z,9.20
2018-02-08T18:31:38.878Z,8.60
2018-02-08T18:34:06.431Z,9.80
2018-02-08T18:36:33.971Z,8.03
2018-02-08T18:39:01.505Z,9.23
2018-02-08T18:41:29.830Z,9.17
2018-02-08T18:43:57.359Z,8.90
2018-02-08T18:46:24.912Z,8.90
2018-02-08T18:48:57.414Z,8.70
2018-02-08T18:51:24.955Z,9.07
2018-02-08T18:53:52.498Z,8.53
2018-02-08T18:56:20.824Z,8.43
2018-02-08T18:58:48.358Z,7.77
2018-02-08T19:01:20.751Z,9.27
2018-02-08T19:03:48.299Z,9.00
2018-02-08T19:06:15.848Z,9.63
2018-02-08T19:08:43.390Z,7.60
2018-02-08T19:11:11.727Z,8.23
2018-02-08T19:13:40.318Z,8.90
2018-02-08T19:16:07.855Z,9.37
2018-02-08T19:18:35.427Z,8.83
2018-02-08T19:21:02.989Z,9.00
2018-02-08T19:23:30.546Z,9.37
2018-02-08T19:26:08.234Z,9.37
2018-02-08T19:28:35.802Z,8.50
2018-02-08T19:31:03.343Z,8.23
2018-02-08T19:33:30.895Z,9.30
2018-02-08T19:35:58.433Z,9.33
2018-02-08T19:38:26.763Z,8.77
2018-02-08T19:40:54.314Z,8.93
2018-02-08T19:43:21.884Z,8.33
2018-02-08T19:45:49.427Z,7.90
2018-02-08T19:48:16.954Z,8.77
2018-02-08T19:50:46.307Z,9.67
2018-02-08T19:53:13.850Z,9.53
2018-02-08T19:55:41.410Z,8.63
2018-02-08T19:58:08.949Z,8.97
2018-02-08T20:00:36.478Z,8.87
2018-02-08T20:03:04.039Z,9.10
2018-02-08T20:05:34.922Z,8.97
2018-02-08T20:08:02.483Z,8.07
2018-02-08T20:10:30.037Z,8.23
2018-02-08T20:12:57.582Z,8.93
2018-02-08T20:15:26.113Z,8.00
2018-02-08T20:17:53.658Z,8.83
2018-02-08T20:20:21.207Z,8.20
2018-02-08T20:22:48.772Z,9.00
2018-02-08T20:28:14.632Z,9.70
2018-02-08T20:30:42.219Z,8.87
2018-02-08T20:33:09.768Z,8.90
2018-02-08T20:35:37.307Z,8.00
2018-02-08T20:38:04.852Z,8.20
2018-02-08T20:40:32.434Z,8.87
2018-02-08T20:43:09.871Z,9.20
2018-02-08T20:45:51.437Z,8.90
2018-02-08T20:48:18.981Z,9.10
2018-02-08T20:50:46.535Z,9.80
2018-02-08T20:53:16.138Z,9.53
2018-02-08T20:55:43.672Z,9.17
2018-02-08T20:58:12.258Z,9.80
2018-02-08T21:00:39.834Z,10.40
2018-02-08T21:03:07.375Z,9.80
2018-02-08T21:05:38.244Z,9.30
2018-02-08T21:08:05.778Z,10.63
2018-02-08T21:10:33.634Z,11.27
2018-02-08T21:13:02.030Z,10.30
2018-02-08T21:15:29.604Z,10.30
2018-02-08T21:18:00.711Z,9.57
2018-02-08T21:20:28.319Z,9.20
2018-02-08T21:22:55.999Z,9.90
2018-02-08T21:25:23.552Z,10.20
2018-02-08T21:27:51.126Z,9.63
2018-02-08T21:30:18.699Z,9.40
2018-02-08T21:32:47.082Z,9.57
2018-02-08T21:35:14.647Z,9.40
2018-02-08T21:37:47.635Z,10.37
2018-02-08T21:40:15.960Z,9.40
2018-02-08T21:42:43.498Z,10.30
2018-02-08T21:45:11.037Z,11.30
2018-02-08T21:47:42.336Z,11.07
2018-02-08T21:50:11.693Z,9.57
2018-02-08T21:52:39.424Z,10.20
2018-02-08T21:55:06.976Z,10.23
2018-02-08T21:57:43.404Z,9.87
2018-02-08T22:00:10.956Z,9.87
2018-02-08T22:02:39.567Z,9.47
2018-02-08T22:08:01.188Z,11.03
2018-02-08T22:10:28.772Z,10.33
2018-02-08T22:12:56.316Z,10.13
2018-02-08T22:15:23.878Z,10.17
2018-02-08T22:17:51.434Z,10.50
2018-02-08T22:20:19.740Z,9.93
2018-02-08T22:22:47.310Z,9.87
2018-02-08T22:25:14.852Z,10.03
2018-02-08T22:27:42.390Z,10.50
2018-02-08T22:30:09.924Z,9.57
2018-02-08T22:32:37.474Z,10.10
2018-02-08T22:35:05.804Z,10.57
2018-02-08T22:37:33.338Z,10.37
2018-02-08T22:40:00.875Z,10.33
2018-02-08T22:42:29.190Z,11.50
2018-02-08T22:44:56.746Z,10.83
2018-02-08T22:47:24.317Z,10.20
2018-02-08T22:49:51.852Z,10.63
2018-02-08T22:52:21.358Z,10.77
2018-02-08T22:54:48.906Z,11.27
2018-02-08T22:57:17.230Z,10.93
2018-02-08T22:59:44.799Z,10.87
2018-02-08T23:02:12.374Z,10.57
2018-02-08T23:04:39.933Z,10.00
2018-02-08T23:07:07.475Z,10.00
2018-02-08T23:09:35.025Z,10.50
2018-02-08T23:12:02.595Z,10.50
2018-02-08T23:14:30.146Z,10.30
2018-02-08T23:16:57.691Z,11.10
2018-02-08T23:19:25.269Z,10.13
2018-02-08T23:21:52.804Z,11.40
2018-02-08T23:24:20.382Z,10.60
2018-02-08T23:26:47.930Z,10.60
2018-02-08T23:29:15.499Z,10.67
2018-02-08T23:31:43.041Z,10.97
2018-02-08T23:34:10.578Z,10.50
2018-02-08T23:36:38.879Z,10.83
2018-02-08T23:39:06.413Z,10.80
2018-02-08T23:41:34.750Z,9.90
2018-02-08T23:44:02.295Z,10.93
2018-02-08T23:46:29.831Z,10.97
2018-02-08T23:48:57.378Z,10.80
2018-02-08T23:51:25.690Z,9.90
2018-02-08T23:53:53.261Z,11.00
2018-02-08T23:56:20.807Z,11.83
2018-02-08T23:58:48.348Z,10.57
